Time;durP1;ratioP1;P1;durP2;ratioP2;P2;SDS_P1;SDS_P2;PMS_P1;PMS_P2;Temp;Humidity;BMP_temperature;BMP_pressure;BME280_temperature;BME280_humidity;BME280_pressure;Samples;Min_cycle;Max_cycle;Signal;HPM_P1;HPM_P2
2022/03/20 00:02:20;;;;;;;14.55;5.97;;;;;;;2.41;36.34;101761.69;4935163;29;20392;-64
2022/03/20 00:04:48;;;;;;;18.73;6.03;;;;;;;2.39;36.40;101770.16;4936485;29;20083;-64
2022/03/20 00:07:15;;;;;;;13.07;6.05;;;;;;;2.37;36.25;101766.78;4934880;29;20063;-64
2022/03/20 00:09:44;;;;;;;13.70;6.60;;;;;;;2.34;36.23;101763.69;4936745;29;20083;-63
2022/03/20 00:12:11;;;;;;;12.15;5.60;;;;;;;2.27;36.74;101760.13;4935435;29;20048;-64
2022/03/20 00:14:37;;;;;;;13.05;7.00;;;;;;;2.26;36.56;101770.28;4919120;29;20123;-64
2022/03/20 00:17:05;;;;;;;12.65;5.57;;;;;;;2.22;36.73;101774.53;4934965;29;20063;-63
2022/03/20 00:19:32;;;;;;;18.05;6.60;;;;;;;2.22;36.69;101774.53;4936394;29;20139;-63
2022/03/20 00:21:59;;;;;;;11.98;5.68;;;;;;;2.22;36.68;101760.78;4934855;29;20132;-63
2022/03/20 00:24:26;;;;;;;12.02;5.53;;;;;;;2.20;36.79;101764.84;4936222;29;20508;-63
2022/03/20 00:26:56;;;;;;;20.45;6.22;;;;;;;2.20;36.74;101759.34;4934471;29;20070;-62
2022/03/20 00:29:25;;;;;;;17.95;7.60;;;;;;;2.14;37.17;101760.25;4935782;29;20229;-62
2022/03/20 00:31:52;;;;;;;12.85;6.15;;;;;;;2.11;37.02;101763.44;4934939;29;20062;-63
2022/03/20 00:34:19;;;;;;;11.68;5.65;;;;;;;2.09;36.96;101760.06;4918109;29;20079;-63
2022/03/20 00:36:46;;;;;;;10.98;5.22;;;;;;;2.04;37.24;101752.50;4934913;29;20103;-63
2022/03/20 00:39:13;;;;;;;13.45;5.57;;;;;;;2.02;36.97;101756.53;4935424;29;20043;-63
2022/03/20 00:41:40;;;;;;;12.25;6.05;;;;;;;2.02;37.19;101743.69;4935740;29;20138;-63
2022/03/20 00:44:07;;;;;;;12.45;5.15;;;;;;;2.00;37.55;101747.69;4934658;29;20051;-63
2022/03/20 00:46:34;;;;;;;14.95;5.30;;;;;;;1.95;37.26;101745.59;4935596;29;20532;-63
2022/03/20 00:49:01;;;;;;;13.07;5.35;;;;;;;1.94;36.90;101746.69;4934356;29;20054;-63
2022/03/20 00:51:28;;;;;;;14.35;5.95;;;;;;;1.89;36.94;101747.34;4935455;29;20063;-63
2022/03/20 00:53:55;;;;;;;11.85;5.60;;;;;;;1.88;37.27;101745.69;4934176;29;20131;-64
2022/03/20 00:56:22;;;;;;;20.17;5.90;;;;;;;1.86;37.54;101746.94;4935296;29;20062;-63
2022/03/20 00:58:49;;;;;;;12.85;6.00;;;;;;;1.79;37.51;101741.53;4934481;29;20060;-62
2022/03/20 01:01:16;;;;;;;11.52;5.45;;;;;;;1.82;37.86;101745.72;4935944;29;20083;-63
2022/03/20 01:03:44;;;;;;;12.55;5.70;;;;;;;1.78;37.76;101739.81;4934438;29;20139;-62
2022/03/20 01:06:12;;;;;;;11.23;5.50;;;;;;;1.75;37.80;101740.25;4935205;29;20062;-63
2022/03/20 01:08:39;;;;;;;11.93;5.75;;;;;;;1.72;38.23;101735.22;4934088;29;20054;-63
2022/03/20 01:11:07;;;;;;;10.70;5.32;;;;;;;1.72;37.99;101732.47;4935339;29;20522;-64
2022/03/20 01:13:35;;;;;;;12.15;5.63;;;;;;;1.75;37.90;101743.00;4934362;29;20082;-63
2022/03/20 01:16:03;;;;;;;12.05;5.45;;;;;;;1.77;38.03;101746.38;4935166;29;20056;-63
2022/03/20 01:18:30;;;;;;;10.15;5.82;;;;;;;1.77;38.33;101740.91;4935151;29;20138;-63
2022/03/20 01:20:58;;;;;;;10.68;5.93;;;;;;;1.74;37.80;101746.81;4935051;29;20530;-64
2022/03/20 01:23:24;;;;;;;13.10;6.05;;;;;;;1.73;38.62;101741.56;4935821;29;20083;-63
2022/03/20 01:25:52;;;;;;;12.73;5.90;;;;;;;1.71;38.29;101744.53;4933201;29;20059;-63
2022/03/20 01:28:20;;;;;;;11.98;5.93;;;;;;;1.67;38.24;101743.31;4935186;29;20051;-62
2022/03/20 01:30:47;;;;;;;13.30;6.18;;;;;;;1.60;38.20;101742.47;4933717;29;20052;-63
2022/03/20 01:33:16;;;;;;;12.65;5.28;;;;;;;1.58;38.42;101738.28;4935037;29;20059;-62
2022/03/20 01:35:45;;;;;;;12.10;5.85;;;;;;;1.53;38.81;101736.19;4933459;29;20154;-63
2022/03/20 01:38:18;;;;;;;11.75;5.50;;;;;;;1.51;38.90;101730.09;4934976;29;20055;-63
2022/03/20 01:40:47;;;;;;;10.93;5.25;;;;;;;1.52;38.67;101731.78;4933541;29;20138;-63
2022/03/20 01:43:14;;;;;;;12.13;5.85;;;;;;;1.55;39.03;101736.84;4934797;29;20478;-63
2022/03/20 01:45:41;;;;;;;11.40;6.20;;;;;;;1.50;38.98;101728.41;4933276;29;20078;-62
2022/03/20 01:48:09;;;;;;;15.55;6.43;;;;;;;1.52;39.26;101733.69;4932830;29;20511;-63
2022/03/20 01:50:37;;;;;;;20.10;7.00;;;;;;;1.51;38.97;101734.75;4930141;29;20079;-64
2022/03/20 01:53:06;;;;;;;14.52;5.55;;;;;;;1.49;38.89;101731.38;4934588;29;20052;-63
2022/03/20 01:55:33;;;;;;;16.65;6.38;;;;;;;1.48;38.99;101722.31;4933170;29;20075;-63
2022/03/20 01:58:00;;;;;;;15.57;5.82;;;;;;;1.47;38.95;101723.38;4934547;29;20134;-62
2022/03/20 02:00:28;;;;;;;10.10;5.63;;;;;;;1.44;39.57;101718.34;4933795;29;20160;-63
2022/03/20 02:02:56;;;;;;;11.20;5.63;;;;;;;1.45;39.18;101711.78;4934475;29;20060;-63
2022/03/20 02:05:23;;;;;;;12.52;6.30;;;;;;;1.43;39.47;101711.19;4933272;29;20495;-63
2022/03/20 02:07:50;;;;;;;12.60;6.57;;;;;;;1.43;39.67;101713.91;4930509;29;20241;-62
2022/03/20 02:10:17;;;;;;;12.45;5.97;;;;;;;1.43;39.79;101705.69;4933944;29;20442;-63
2022/03/20 02:12:44;;;;;;;12.60;6.28;;;;;;;1.44;39.82;101710.09;4934837;29;20091;-64
2022/03/20 02:15:13;;;;;;;14.07;5.38;;;;;;;1.41;39.81;101699.56;4934279;29;20055;-63
2022/03/20 02:17:42;;;;;;;14.90;6.38;;;;;;;1.40;40.26;101697.06;4933116;29;20146;-64
2022/03/20 02:20:10;;;;;;;11.75;5.88;;;;;;;1.41;40.09;101693.25;4934614;29;20055;-64
2022/03/20 02:22:40;;;;;;;20.95;6.70;;;;;;;1.41;40.17;101698.72;4932484;29;20051;-63
2022/03/20 02:25:10;;;;;;;10.45;5.60;;;;;;;1.38;40.12;101693.69;4934282;29;20054;-63
2022/03/20 02:27:40;;;;;;;24.25;6.65;;;;;;;1.37;40.24;101692.00;4933499;29;20080;-65
2022/03/20 02:30:13;;;;;;;17.33;5.82;;;;;;;1.35;40.61;101700.47;4934396;29;20479;-65
2022/03/20 02:32:42;;;;;;;13.82;6.47;;;;;;;1.36;40.33;101695.81;4932636;29;20526;-64
2022/03/20 02:35:14;;;;;;;26.73;6.50;;;;;;;1.30;40.80;101692.03;4932995;29;20563;-64
2022/03/20 02:37:48;;;;;;;16.83;5.97;;;;;;;1.28;40.66;101691.44;4932623;29;20055;-64
2022/03/20 02:40:17;;;;;;;20.75;6.20;;;;;;;1.23;41.04;101683.03;4917397;29;20534;-64
2022/03/20 02:42:46;;;;;;;17.00;6.43;;;;;;;1.21;40.84;101687.03;4933123;29;20055;-63
2022/03/20 02:45:32;;;;;;;11.88;5.45;;;;;;;1.23;40.99;101691.25;4934324;29;20052;-64
2022/03/20 02:48:01;;;;;;;18.33;6.20;;;;;;;1.17;41.42;101692.13;4933559;29;20111;-63
2022/03/20 02:50:33;;;;;;;12.98;5.82;;;;;;;1.16;41.49;101686.88;4933068;29;20487;-65
2022/03/20 02:53:03;;;;;;;13.02;6.15;;;;;;;1.16;41.08;101684.13;4930761;29;20103;-64
2022/03/20 02:55:33;;;;;;;10.85;5.68;;;;;;;1.11;41.31;101682.03;4932634;29;20044;-64
2022/03/20 02:58:07;;;;;;;14.32;5.70;;;;;;;1.07;41.42;101683.53;4931044;29;20075;-64
2022/03/20 03:00:35;;;;;;;11.80;5.70;;;;;;;1.03;41.57;101682.28;4936555;29;20090;-64
2022/03/20 03:03:04;;;;;;;18.85;6.07;;;;;;;1.02;41.77;101683.34;4937912;29;20055;-64
2022/03/20 03:05:32;;;;;;;14.10;7.10;;;;;;;1.03;41.54;101678.69;4936936;29;20047;-64
2022/03/20 03:10:57;;;;;;;18.75;6.88;;;;;;;1.00;41.88;101681.88;4901549;29;20114;-62
2022/03/20 03:13:31;;;;;;;24.48;7.38;;;;;;;1.02;42.05;101688.00;4937298;29;20511;-64
2022/03/20 03:16:01;;;;;;;20.27;7.32;;;;;;;0.96;42.15;101688.84;4936083;29;20052;-64
2022/03/20 03:18:29;;;;;;;14.82;6.72;;;;;;;0.91;42.46;101674.97;4936976;29;20111;-64
2022/03/20 03:20:56;;;;;;;12.15;6.10;;;;;;;0.93;42.50;101679.19;4935345;29;20055;-63
2022/03/20 03:23:26;;;;;;;15.68;7.40;;;;;;;0.92;42.63;101679.41;4938260;29;20056;-63
2022/03/20 03:25:55;;;;;;;12.43;6.15;;;;;;;0.92;42.75;101676.66;4935956;29;20052;-66
2022/03/20 03:28:28;;;;;;;17.73;6.20;;;;;;;0.93;42.65;101679.19;4937408;29;20107;-66
2022/03/20 03:30:55;;;;;;;13.73;6.28;;;;;;;0.91;42.96;101675.81;4918725;29;20300;-66
2022/03/20 03:33:23;;;;;;;19.45;6.38;;;;;;;0.88;43.07;101670.78;4937140;29;20086;-65
2022/03/20 03:35:57;;;;;;;16.63;6.65;;;;;;;0.93;43.59;101679.19;4904191;29;20051;-66
2022/03/20 03:38:35;;;;;;;16.35;7.18;;;;;;;0.96;43.20;101680.63;4937218;29;20043;-64
2022/03/20 03:41:03;;;;;;;28.38;6.70;;;;;;;0.98;43.55;101671.13;4935911;29;20475;-63
2022/03/20 03:43:30;;;;;;;12.77;6.03;;;;;;;0.97;43.47;101668.59;4937105;29;20139;-64
2022/03/20 03:45:57;;;;;;;11.55;6.03;;;;;;;0.97;43.65;101671.34;4935467;29;20460;-64
2022/03/20 03:48:25;;;;;;;15.20;7.00;;;;;;;0.92;43.78;101655.56;4919405;29;20043;-64
2022/03/20 03:50:54;;;;;;;13.43;6.82;;;;;;;0.97;44.04;101669.47;4935185;29;20480;-64
2022/03/20 03:53:21;;;;;;;17.83;7.20;;;;;;;0.98;44.12;101662.09;4937057;29;20075;-64
2022/03/20 03:55:48;;;;;;;15.30;6.97;;;;;;;0.98;44.40;101659.34;4935288;29;21133;-64
2022/03/20 03:58:15;;;;;;;13.10;6.47;;;;;;;0.98;44.30;101664.84;4919345;29;20511;-64
2022/03/20 04:00:43;;;;;;;14.45;6.40;;;;;;;0.95;44.72;101655.13;4935239;29;20503;-64
2022/03/20 04:03:11;;;;;;;16.98;6.47;;;;;;;0.97;44.96;101658.50;4937286;29;20048;-64
2022/03/20 04:05:38;;;;;;;17.15;8.02;;;;;;;0.97;44.72;101658.50;4935398;29;20048;-65
2022/03/20 04:08:09;;;;;;;16.65;8.00;;;;;;;1.01;44.93;101665.22;4936394;29;20062;-65
2022/03/20 04:10:36;;;;;;;19.17;8.85;;;;;;;0.99;45.29;101659.13;4935573;29;20056;-65
2022/03/20 04:13:04;;;;;;;17.73;8.07;;;;;;;0.96;45.82;101662.31;4935511;29;20583;-65
2022/03/20 04:15:31;;;;;;;21.75;9.10;;;;;;;0.86;45.71;101661.09;4936370;29;20087;-66
2022/03/20 04:18:01;;;;;;;19.42;9.52;;;;;;;0.91;45.45;101659.38;4936107;29;20062;-66
2022/03/20 04:20:29;;;;;;;29.25;9.68;;;;;;;0.91;46.09;101651.16;4936602;29;20055;-65
2022/03/20 04:25:41;;;;;;;20.80;9.27;;;;;;;1.03;45.82;101652.16;4935327;29;20499;-66
2022/03/20 04:28:09;;;;;;;18.42;8.70;;;;;;;1.06;45.84;101646.22;4935860;29;20066;-65
2022/03/20 04:30:36;;;;;;;18.48;9.40;;;;;;;1.13;45.92;101646.19;4934692;29;20440;-64
2022/03/20 04:33:04;;;;;;;17.17;8.27;;;;;;;1.17;45.72;101642.78;4936620;29;20502;-65
2022/03/20 04:35:31;;;;;;;19.88;8.68;;;;;;;1.25;46.04;101650.72;4936099;29;20052;-65
2022/03/20 04:38:02;;;;;;;;;;;;;;;1.28;45.79;101650.31;4936641;29;20055;-66
2022/03/20 04:40:29;;;;;;;18.08;8.20;;;;;;;1.37;45.54;101648.16;4919304;29;19973;-65
2022/03/20 04:42:56;;;;;;;19.77;8.85;;;;;;;1.51;45.40;101647.81;4934602;29;20115;-65
2022/03/20 04:45:24;;;;;;;15.25;7.57;;;;;;;1.58;45.56;101654.13;4935964;29;20484;-65
2022/03/20 04:58:54;;;;;;;14.48;7.53;;;;;;;2.09;45.87;101647.53;4918683;29;20123;-65
2022/03/20 05:01:20;;;;;;;15.60;8.07;;;;;;;2.22;45.71;101650.16;4934117;29;20533;-67
2022/03/20 05:03:48;;;;;;;16.05;6.72;;;;;;;2.33;45.55;101643.88;4935337;29;20066;-67
2022/03/20 05:06:14;;;;;;;13.95;7.28;;;;;;;2.28;45.84;101641.00;4933963;29;20418;-65
2022/03/20 05:08:41;;;;;;;11.48;6.03;;;;;;;2.25;45.95;101646.97;4935807;29;20090;-65
2022/03/20 05:13:54;;;;;;;12.82;6.78;;;;;;;2.45;45.78;101636.56;4918269;29;20079;-65
2022/03/20 05:16:21;;;;;;;17.70;6.53;;;;;;;2.63;45.70;101636.59;4933584;29;20416;-65
2022/03/20 05:18:48;;;;;;;13.70;7.03;;;;;;;2.82;45.29;101639.09;4918610;29;20529;-65
2022/03/20 05:21:15;;;;;;;13.63;6.03;;;;;;;3.03;45.10;101626.75;4934058;29;20105;-65
2022/03/20 05:23:42;;;;;;;22.42;7.28;;;;;;;3.40;44.55;101620.91;4935244;29;20058;-65
2022/03/20 05:26:09;;;;;;;12.75;6.07;;;;;;;4.22;42.59;101625.41;4933605;29;20050;-65
2022/03/20 05:28:36;;;;;;;14.07;6.60;;;;;;;5.07;41.35;101607.13;4935284;29;20122;-63
2022/03/20 05:31:03;;;;;;;11.32;5.65;;;;;;;5.21;41.04;101609.31;4933654;29;20519;-63
2022/03/20 05:33:32;;;;;;;14.13;6.32;;;;;;;5.62;40.94;101606.22;4935067;29;20103;-64
2022/03/20 05:36:00;;;;;;;15.55;6.28;;;;;;;6.36;39.30;101598.53;4934576;29;20055;-63
2022/03/20 05:38:27;;;;;;;13.57;5.50;;;;;;;7.43;37.43;101594.84;4918434;29;20055;-64
2022/03/20 05:41:43;;;;;;;19.10;6.65;;;;;;;8.36;36.08;101597.88;4933752;29;20142;-63
2022/03/20 05:43:41;;;;;;;11.25;6.10;;;;;;;8.67;34.96;101593.28;4933590;29;20110;-63
2022/03/20 05:46:08;;;;;;;13.02;6.05;;;;;;;7.67;37.20;101598.13;4933267;29;20142;-62
2022/03/20 05:48:36;;;;;;;13.52;6.05;;;;;;;6.77;38.53;101598.00;4929571;29;20051;-62
2022/03/20 05:51:03;;;;;;;15.32;6.60;;;;;;;7.18;38.16;101583.53;4929791;29;20487;-64
2022/03/20 05:53:29;;;;;;;14.63;6.45;;;;;;;9.25;35.38;101577.16;4934384;29;20140;-64
2022/03/20 05:58:42;;;;;;;11.15;5.75;;;;;;;9.25;34.85;101581.84;4933468;29;20075;-62
2022/03/20 06:01:09;;;;;;;10.75;5.25;;;;;;;8.59;35.69;101575.22;4932864;29;20087;-62
2022/03/20 06:03:37;;;;;;;10.20;5.25;;;;;;;8.01;37.14;101578.19;4934394;29;20515;-62
2022/03/20 06:06:07;;;;;;;11.55;6.00;;;;;;;8.80;35.78;101570.63;4933494;29;20503;-62
2022/03/20 06:08:35;;;;;;;;;;;;;;;8.58;35.80;101570.78;4934713;29;20466;-63
2022/03/20 06:11:03;;;;;;;14.80;5.75;;;;;;;8.68;35.65;101562.50;4932802;29;19962;-63
2022/03/20 06:13:31;;;;;;;13.60;5.85;;;;;;;8.38;36.03;101556.00;4934563;29;20096;-62
2022/03/20 06:15:59;;;;;;;17.17;5.20;;;;;;;7.55;37.80;101562.28;4933095;29;20073;-63
2022/03/20 06:18:26;;;;;;;13.82;6.20;;;;;;;8.17;37.45;101559.72;4913713;29;20074;-64
2022/03/20 06:20:53;;;;;;;12.13;6.13;;;;;;;9.83;34.67;101550.75;4933692;29;20048;-63
2022/03/20 06:23:22;;;;;;;12.40;6.43;;;;;;;10.56;33.10;101558.44;4917773;29;20114;-63
2022/03/20 06:25:51;;;;;;;10.23;5.80;;;;;;;11.80;31.42;101546.84;4934082;29;20449;-64
2022/03/20 06:28:19;;;;;;;13.68;6.28;;;;;;;13.64;29.19;101541.19;4933680;29;20087;-63
2022/03/20 06:30:47;;;;;;;12.27;5.85;;;;;;;15.35;26.61;101542.28;4934132;29;20062;-63
2022/03/20 06:33:15;;;;;;;10.52;6.15;;;;;;;16.73;25.04;101528.00;4931956;29;20059;-65
2022/03/20 06:35:42;;;;;;;10.80;6.15;;;;;;;16.27;25.40;101526.47;4934136;29;20079;-64
2022/03/20 06:38:13;;;;;;;11.48;5.65;;;;;;;16.84;24.72;101532.19;4932969;29;20495;-63
2022/03/20 06:40:40;;;;;;;12.73;6.15;;;;;;;16.57;25.03;101529.59;4934183;29;20138;-65
2022/03/20 06:43:07;;;;;;;17.88;6.65;;;;;;;17.03;24.87;101516.69;4932350;29;20087;-64
2022/03/20 06:45:35;;;;;;;12.23;6.43;;;;;;;17.89;23.74;101517.56;4933833;29;20459;-65
2022/03/20 06:48:04;;;;;;;10.27;5.80;;;;;;;18.17;23.36;101513.19;4932196;29;20052;-63
2022/03/20 06:50:31;;;;;;;11.57;5.97;;;;;;;18.68;22.83;101515.81;4934288;29;20138;-64
2022/03/20 06:53:02;;;;;;;12.07;6.05;;;;;;;16.81;24.60;101511.16;4932831;29;20067;-63
2022/03/20 06:55:30;;;;;;;13.75;7.00;;;;;;;14.88;27.01;101514.75;4933776;29;20087;-65
2022/03/20 06:57:58;;;;;;;14.13;6.85;;;;;;;15.06;26.14;101527.81;4915913;29;20060;-66
2022/03/20 07:00:28;;;;;;;13.80;7.22;;;;;;;14.72;26.35;101516.22;4933359;29;20142;-65
2022/03/20 07:02:56;;;;;;;12.23;6.05;;;;;;;14.66;26.32;101512.69;4932397;29;20151;-66
2022/03/20 07:05:30;;;;;;;12.60;5.72;;;;;;;13.55;28.17;101512.25;4933410;29;20067;-65
2022/03/20 07:07:57;;;;;;;10.50;5.90;;;;;;;13.44;28.52;101510.78;4932549;29;20067;-66
2022/03/20 07:10:26;;;;;;;12.55;5.38;;;;;;;14.13;27.61;101503.13;4933594;29;20475;-65
2022/03/20 07:15:40;;;;;;;10.25;6.70;;;;;;;15.02;26.48;101503.50;4934001;29;20546;-65
2022/03/20 07:18:09;;;;;;;11.70;6.55;;;;;;;15.38;26.24;101510.81;4932281;29;20537;-65
2022/03/20 07:20:38;;;;;;;34.92;15.55;;;;;;;16.85;24.56;101508.53;4933725;29;20138;-65
2022/03/20 07:23:11;;;;;;;12.27;6.80;;;;;;;18.47;22.68;101500.84;4932403;29;20048;-64
2022/03/20 07:31:15;;;;;;;14.90;6.55;;;;;;;16.41;24.75;101481.44;4932120;29;20459;-64
2022/03/20 07:33:42;;;;;;;11.50;6.15;;;;;;;17.48;24.26;101483.47;4933897;29;20048;-64
2022/03/20 07:36:09;;;;;;;10.75;6.25;;;;;;;19.67;21.83;101487.63;4932418;29;20199;-63
2022/03/20 07:38:36;;;;;;;10.98;6.13;;;;;;;20.92;20.70;101469.81;4933200;29;20138;-64
2022/03/20 07:41:03;;;;;;;19.42;6.28;;;;;;;20.24;21.19;101458.59;4933247;29;20059;-64
2022/03/20 07:43:30;;;;;;;11.07;6.50;;;;;;;18.79;22.48;101472.00;4933194;29;20412;-65
2022/03/20 07:45:58;;;;;;;11.07;5.88;;;;;;;17.27;24.34;101476.84;4936724;29;20126;-66
2022/03/20 07:48:25;;;;;;;14.35;5.97;;;;;;;17.38;23.84;101461.28;4915397;29;20052;-66
2022/03/20 07:50:53;;;;;;;16.95;6.45;;;;;;;17.76;23.58;101456.63;4936644;29;20060;-66
2022/03/20 07:53:20;;;;;;;33.25;11.82;;;;;;;17.18;24.21;101457.16;4934647;29;20499;-65
2022/03/20 07:55:48;;;;;;;9.75;5.40;;;;;;;17.40;23.94;101464.56;4919366;29;20216;-66
2022/03/20 07:58:20;;;;;;;11.85;6.35;;;;;;;17.73;23.56;101462.91;4935702;29;20052;-64
2022/03/20 08:00:49;;;;;;;9.07;5.10;;;;;;;18.03;23.26;101459.06;4937258;29;20055;-65
2022/03/20 08:03:18;;;;;;;12.77;5.80;;;;;;;18.23;23.06;101459.13;4935140;29;20116;-65
2022/03/20 08:05:46;;;;;;;12.98;5.35;;;;;;;18.58;22.77;101457.03;4936816;29;20400;-65
2022/03/20 08:08:16;;;;;;;9.05;4.97;;;;;;;18.78;22.47;101453.44;4935429;29;20416;-65
2022/03/20 08:10:43;;;;;;;12.93;5.68;;;;;;;18.84;22.40;101446.41;4936723;29;20044;-65
2022/03/20 08:13:12;;;;;;;11.15;5.32;;;;;;;18.75;22.58;101445.66;4935340;29;20111;-66
2022/03/20 08:15:41;;;;;;;16.58;4.72;;;;;;;18.98;22.14;101444.13;4936326;29;20154;-65
2022/03/20 08:18:08;;;;;;;9.18;4.80;;;;;;;18.32;22.91;101428.09;4934774;29;20056;-66
2022/03/20 08:20:36;;;;;;;8.95;5.10;;;;;;;19.41;21.94;101427.72;4936372;29;20056;-64
2022/03/20 08:23:06;;;;;;;10.25;4.95;;;;;;;21.64;19.95;101420.66;4934939;29;20253;-64
2022/03/20 08:25:35;;;;;;;8.32;4.38;;;;;;;23.70;17.56;101420.50;4936183;29;20541;-65
2022/03/20 08:28:05;;;;;;;15.43;4.50;;;;;;;25.59;16.06;101405.75;4934997;29;20522;-64
2022/03/20 08:30:33;;;;;;;7.47;4.05;;;;;;;26.14;15.49;101405.59;4918984;29;20052;-63
2022/03/20 08:33:01;;;;;;;8.65;4.88;;;;;;;27.40;14.59;101399.19;4934890;29;20573;-63
2022/03/20 08:35:29;;;;;;;7.95;4.72;;;;;;;28.98;13.31;101385.91;4942727;23;20068;-64
2022/03/20 08:38:00;;;;;;;12.38;4.53;;;;;;;30.10;12.40;101384.63;4933808;29;20060;-64
2022/03/20 08:40:27;;;;;;;7.70;4.07;;;;;;;30.95;11.69;101385.56;4936231;29;20483;-65
2022/03/20 08:42:56;;;;;;;7.35;4.47;;;;;;;32.11;10.98;101391.94;4935397;29;20052;-64
2022/03/20 08:45:26;;;;;;;11.82;4.10;;;;;;;32.57;10.47;101381.31;4936187;29;20079;-64
2022/03/20 08:47:59;;;;;;;11.85;4.05;;;;;;;33.08;10.74;101389.44;4934872;29;20048;-64
2022/03/20 08:50:30;;;;;;;5.72;3.70;;;;;;;33.86;9.99;101379.16;4936789;29;20086;-64
2022/03/20 08:52:59;;;;;;;8.55;4.13;;;;;;;34.12;9.52;101372.34;4935163;29;20107;-64
2022/03/20 08:55:28;;;;;;;10.40;4.37;;;;;;;34.50;9.19;101367.69;4935248;29;20419;-65
2022/03/20 08:57:57;;;;;;;10.48;4.07;;;;;;;34.92;8.61;101366.59;4935342;29;20398;-64
2022/03/20 09:00:26;;;;;;;12.95;4.15;;;;;;;34.92;8.89;101369.47;4935682;29;20051;-63
2022/03/20 09:02:55;;;;;;;11.30;4.15;;;;;;;35.24;8.11;101369.41;4935230;29;20138;-63
2022/03/20 09:05:22;;;;;;;96.18;39.67;;;;;;;34.98;8.67;101356.91;4934942;29;20411;-63
2022/03/20 09:07:53;;;;;;;9.18;4.40;;;;;;;34.83;8.26;101349.03;4935548;29;20138;-63
2022/03/20 09:10:21;;;;;;;9.98;3.65;;;;;;;34.02;8.87;101362.69;4919268;29;20059;-62
2022/03/20 09:12:47;;;;;;;8.52;4.22;;;;;;;34.08;8.38;101354.28;4935761;29;20051;-64
2022/03/20 09:15:20;;;;;;;9.65;3.97;;;;;;;34.63;8.29;101354.13;4935235;29;20056;-63
2022/03/20 09:20:36;;;;;;;13.57;5.10;;;;;;;35.86;7.86;101344.78;4935135;29;20070;-62
2022/03/20 09:23:08;;;;;;;7.13;3.60;;;;;;;34.80;7.90;101345.00;4934586;29;20047;-65
2022/03/20 09:25:35;;;;;;;6.30;3.22;;;;;;;34.43;8.04;101336.88;4932750;29;20404;-63
2022/03/20 09:28:04;;;;;;;8.88;3.38;;;;;;;34.70;7.46;101333.72;4934574;29;20404;-64
2022/03/20 09:30:33;;;;;;;8.20;3.50;;;;;;;35.08;7.09;101326.06;4935734;29;20075;-63
2022/03/20 09:33:05;;;;;;;7.35;3.20;;;;;;;35.56;6.94;101322.13;4934698;29;20062;-63
2022/03/20 09:35:36;;;;;;;8.70;3.33;;;;;;;35.98;6.90;101321.63;4934864;29;20062;-63
2022/03/20 09:38:07;;;;;;;5.40;3.83;;;;;;;36.23;7.20;101318.69;4934477;29;20151;-63
2022/03/20 09:40:37;;;;;;;7.22;3.03;;;;;;;35.36;6.93;101307.84;4935112;29;20051;-63
2022/03/20 09:43:05;;;;;;;7.05;3.03;;;;;;;35.06;7.36;101314.94;4934211;29;20151;-64
2022/03/20 09:45:33;;;;;;;8.60;3.10;;;;;;;34.58;7.34;101308.44;4935001;29;20055;-64
2022/03/20 09:48:01;;;;;;;7.75;3.05;;;;;;;30.76;9.11;101299.94;4934872;29;20040;-63
2022/03/20 09:50:28;;;;;;;7.00;3.15;;;;;;;26.54;11.01;101301.94;4935049;29;20623;-65
2022/03/20 09:52:55;;;;;;;12.82;4.70;;;;;;;23.62;12.75;101293.72;4935065;29;20155;-66
2022/03/20 09:55:23;;;;;;;7.85;2.85;;;;;;;21.26;14.13;101295.81;4933838;29;20055;-65
2022/03/20 09:57:55;;;;;;;10.27;2.85;;;;;;;19.44;15.98;101297.19;4935072;29;20575;-66
2022/03/20 10:00:23;;;;;;;4.25;2.50;;;;;;;18.05;16.73;101280.13;4933860;29;20503;-67
2022/03/20 10:02:51;;;;;;;7.15;2.42;;;;;;;16.84;17.67;101277.19;4918121;29;20058;-65
2022/03/20 10:05:20;;;;;;;3.60;2.03;;;;;;;15.75;18.61;101277.53;4916842;29;20502;-67
2022/03/20 10:07:47;;;;;;;6.22;2.40;;;;;;;15.10;19.69;101270.94;4918372;29;20063;-66
2022/03/20 10:10:22;;;;;;;7.32;2.20;;;;;;;14.72;19.78;101271.66;4933834;29;20048;-65
2022/03/20 10:12:53;;;;;;;5.10;2.08;;;;;;;14.14;20.38;101258.47;4927762;29;20051;-65
2022/03/20 10:15:37;;;;;;;5.93;2.30;;;;;;;13.82;20.62;101254.97;4933364;29;20410;-66
2022/03/20 10:18:09;;;;;;;4.38;1.85;;;;;;;13.59;20.71;101256.88;4934461;29;20139;-66
2022/03/20 10:20:55;;;;;;;5.28;2.22;;;;;;;13.25;21.09;101261.19;4934297;29;20078;-63
2022/03/20 10:23:42;;;;;;;4.45;1.90;;;;;;;12.94;21.22;101253.34;4933550;29;20079;-63
2022/03/20 10:26:19;;;;;;;2.63;1.50;;;;;;;12.71;21.04;101245.94;4934250;29;20056;-62
2022/03/20 10:28:52;;;;;;;5.28;1.50;;;;;;;12.58;20.95;101243.09;4933724;29;20048;-64
2022/03/20 10:31:23;;;;;;;11.75;1.92;;;;;;;12.13;21.02;101244.66;4934791;29;20444;-63
2022/03/20 10:34:01;;;;;;;7.75;2.15;;;;;;;11.80;20.91;101236.50;4917139;29;20050;-63
2022/03/20 10:36:28;;;;;;;7.07;1.30;;;;;;;11.73;20.98;101239.69;4933284;29;20052;-63
2022/03/20 10:38:55;;;;;;;2.88;1.60;;;;;;;11.80;20.27;101228.97;4915257;29;20068;-63
2022/03/20 10:41:32;;;;;;;5.03;1.27;;;;;;;11.76;20.51;101216.78;4934006;29;20056;-62
2022/03/20 10:44:24;;;;;;;2.22;1.10;;;;;;;11.73;20.40;101217.38;4933361;29;20414;-64
2022/03/20 10:47:12;;;;;;;3.10;1.40;;;;;;;11.69;21.31;101205.13;4933353;29;20526;-64
2022/03/20 10:50:00;;;;;;;8.02;1.55;;;;;;;11.65;20.89;101198.53;4934689;29;20055;-63
2022/03/20 10:52:29;;;;;;;9.65;1.48;;;;;;;11.56;21.04;101200.28;4934686;29;20059;-63
2022/03/20 10:54:57;;;;;;;6.35;1.40;;;;;;;11.50;20.80;101178.34;4933293;29;20043;-63
2022/03/20 10:57:34;;;;;;;6.25;1.60;;;;;;;11.40;21.09;101179.28;4933949;29;20579;-64
2022/03/20 11:00:14;;;;;;;6.07;1.15;;;;;;;11.35;20.31;101176.59;4933137;29;20110;-63
2022/03/20 11:02:41;;;;;;;3.63;1.10;;;;;;;11.24;20.67;101174.22;4934182;29;20059;-62
2022/03/20 11:05:09;;;;;;;3.83;1.27;;;;;;;11.27;20.96;101163.31;4933190;29;20107;-62
2022/03/20 11:07:37;;;;;;;2.85;1.13;;;;;;;11.29;20.22;101171.38;4933744;29;20147;-63
2022/03/20 11:10:14;;;;;;;4.63;1.25;;;;;;;11.31;20.42;101164.38;4915976;29;20055;-62
2022/03/20 11:12:42;;;;;;;3.17;1.33;;;;;;;11.28;21.46;101164.97;4934000;29;20083;-64
2022/03/20 11:15:09;;;;;;;4.93;1.50;;;;;;;11.32;21.69;101154.91;4933277;29;20454;-63
2022/03/20 11:17:43;;;;;;;6.65;1.30;;;;;;;11.23;21.77;101148.34;4934181;29;20078;-62
2022/03/20 11:20:13;;;;;;;4.72;1.05;;;;;;;11.10;22.37;101162.97;4935258;29;20047;-65
2022/03/20 11:22:49;;;;;;;6.47;1.20;;;;;;;10.96;21.99;101151.72;4937417;29;20054;-65
2022/03/20 11:25:21;;;;;;;5.35;1.83;;;;;;;10.94;22.42;101150.34;4936547;29;20150;-65
2022/03/20 11:27:55;;;;;;;11.25;1.27;;;;;;;10.86;22.51;101153.78;4937183;29;20055;-65
2022/03/20 11:30:27;;;;;;;2.47;0.82;;;;;;;10.79;22.01;101145.81;4936561;29;20054;-65
2022/03/20 11:33:00;;;;;;;2.88;1.20;;;;;;;10.76;22.12;101140.81;4937436;29;20056;-65
2022/03/20 11:35:31;;;;;;;3.45;1.52;;;;;;;10.75;23.01;101150.28;4936242;29;20060;-64
2022/03/20 11:38:16;;;;;;;6.10;1.75;;;;;;;10.77;23.17;101150.00;4937336;29;20123;-65
2022/03/20 11:41:05;;;;;;;8.55;2.63;;;;;;;10.82;22.92;101149.94;4935900;29;20130;-65
2022/03/20 11:43:35;;;;;;;8.82;1.45;;;;;;;10.79;22.95;101144.97;4936578;29;20079;-65
2022/03/20 11:46:12;;;;;;;;;;;;;;;10.64;23.13;101142.34;4937528;29;20415;-64
2022/03/20 11:48:39;;;;;;;7.03;1.33;;;;;;;10.58;24.16;101151.88;4936929;29;19931;-65
2022/03/20 11:51:06;;;;;;;4.78;1.30;;;;;;;10.57;24.63;101141.88;4937223;29;20571;-65
2022/03/20 11:53:37;;;;;;;7.65;1.40;;;;;;;10.57;24.90;101139.91;4936302;29;20079;-65
2022/03/20 11:56:30;;;;;;;5.43;1.35;;;;;;;10.55;24.79;101144.09;4937059;29;20048;-65
2022/03/20 11:58:57;;;;;;;7.75;1.60;;;;;;;10.47;24.86;101141.94;4936050;29;20043;-65
2022/03/20 12:01:24;;;;;;;2.75;1.42;;;;;;;10.39;25.84;101135.06;4937073;29;20143;-64
2022/03/20 12:03:56;;;;;;;4.30;1.42;;;;;;;10.37;25.75;101136.50;4936142;29;20064;-66
2022/03/20 12:07:08;;;;;;;2.55;1.15;;;;;;;10.36;26.28;101129.28;4936713;29;20051;-65
2022/03/20 12:09:50;;;;;;;4.28;1.60;;;;;;;10.29;25.93;101128.78;4920096;29;20095;-66